Portada
METAR-TAF:

METAR-TAF

Aeroports :

Johor Bahru, Malàisia

latitud: 01-38N, longitud: 103-40E, altitud: 37 m

Observació

L'informe es va fer fa 22 minuts, a les 00:00 UTC
Vent 4 kt del Nord/Nord-Oest, variant entre Oest/Sud-Oest i Est/Nord-Est
Temperatura 25°C
Humitat 89%
Pressió 1009 hPa
Visibilitat 10 km o més
Escasses núvols a una alçada de 1900 ft

METAR: WMKJ 260000Z 34004KT 250V060 9999 FEW019 25/23 Q1009

Hora: 08:22 (00:22 UTC)

Pronòstic

L'informe es va fer fa 1 hora i 22 minuts, a les 23:00 UTC
Pronòstic vàlid del 26 a les 00 UTC al 27 a les 00 UTC
Vent 3 kt amb direcció variable
Visibilitat 10 km o més
Escasses núvols a una alçada de 2200 ft
Probabilitat 30% :
Temporalment
l' 26 a les 06 UTC al 26 a les 11 UTC
Visibilitat: 4000 m
Escasses núvols a una alçada de 1700 ft, Cumulonimbus.
Núvols disperses a una alçada de 1900 ft
tempesta, pluja

TAF: WMKJ 252300Z 2600/2700 VRB03KT 9999 FEW022 PROB30 TEMPO 2606/2611 4000 TSRA FEW017CB SCT019

Observacions i pronòstics meteorològics de més de 4000 aeroports (METAR i TAF).

Les estacions disponibles són els punts grocs i vermells al mapa.

Posi el ratolí al punt desitjat per veure el nom de l'estació.

Feu clic per veure les observacions i els pronòstics meteorològics.

Per canviar el mapa: feu clic els botons verds amb una creu de color negre per apropar; al botó verd amb un guió per allunyar la imatge; o en les fletxes verdes per a mapes adjacents.


METAR-TAF: